Millenium Air

Millenium Air Since 1998



 METAR AND TAF INFORMATION
METAR FOR VMMC
ADDS - METARS form results

(2317 UTC 15 May 2021)
Data provider http://aviationweather.gov/metar/data/
 
METAR text: VMMC 152300Z 18010KT 9999 FEW015 SCT030 29/26 Q1009 NOSIG
Conditions at: VMMC (MACAO/MACAU , MO) observed 2300 UTC 15 May 2021
Temperature: 29.0°C (84°F)
Dewpoint: 26.0°C (79°F) [RH = 84%]
Pressure (altimeter): 29.79 inches Hg (1009.0 mb)
Winds: from the S (180 degrees) at 12 MPH (10 knots; 5.1 m/s)
Visibility: 6 or more miles (10+ km)
Ceiling: at least 12,000 feet AGL
Clouds: few clouds at 1500 feet AGL
scattered clouds at 3000 feet AGL
Weather: no significant weather observed at this time

METAR text: VMMC 152230Z 18010KT 9999 FEW016 SCT030 28/26 Q1009 NOSIG
Conditions at: VMMC (MACAO/MACAU , MO) observed 2230 UTC 15 May 2021
Temperature: 28.0°C (82°F)
Dewpoint: 26.0°C (79°F) [RH = 89%]
Pressure (altimeter): 29.79 inches Hg (1009.0 mb)
Winds: from the S (180 degrees) at 12 MPH (10 knots; 5.1 m/s)
Visibility: 6 or more miles (10+ km)
Ceiling: at least 12,000 feet AGL
Clouds: few clouds at 1600 feet AGL
scattered clouds at 3000 feet AGL
Weather: no significant weather observed at this time

Forecast for: VMMC (MACAO/MACAU , MO)
Text: TAF VMMC 151700Z 1518/1624 20013KT 9999 FEW015 SCT025
Forecast period: 1800 UTC 15 May 2021 to 0000 UTC 17 May 2021
Forecast type: FROM: standard forecast or significant change
Winds: from the SSW (200 degrees) at 15 MPH (13 knots; 6.7 m/s)
Visibility: 6 or more miles (10+ km)
Ceiling: at least 12,000 feet AGL
Clouds: few clouds at 1500 feet AGL
scattered clouds at 2500 feet AGL
Weather: no significant weather forecast for this period

 AIRPORT MAP

 RUNWAY INFORMATION
Runway 16 Runway length 10544 ft Runway width 148 ft
Runway elevation 20 ft Runway displaced threshold 1195 ft Runway heading 160
Runway 34 Runway length 10544 ft Runway width 148 ft
Runway elevation 20 ft Runway displaced threshold 1215 ft Runway heading 340

 AIRPORT FREQUENCIES
Type APP Name HONG KONG Frequency 126.3 MHZ
Type ATIS Name ATIS Frequency 126.4 MHZ
Type GND Name GND Frequency 121.725 MHZ
Type TWR Name TWR Frequency 118 MHZ

 AIRPORT NEAR NAVIGATION AIDS
Type VOR-DME Name Macau Frequency 116400 KHZ
Type VOR Name Jiuzhou Frequency 117200 KHZ